Etusivu
Sääsatelliitin kuvat 15 päivän ennusteIlmastoMerisää Sykloni Salama LentoasemaUKK Newsletter Tietoja
Sää : Eurooppa Afrikka Pohjois-Amerikka Etelä-Amerikka Aasia Australia-Oseania Muut
Kielillä Yhteystiedot

Kittilä, Suomi

Leveyspiiri: 67-42N, Pituuspiiri: 024-51E, korkeus: 196 m


METAR: EFKT 161850Z AUTO 04003KT CAVOK 06/03 Q1026
short-TAF: EFKT 161427Z 1615/1618 18006KT CAVOK
long-TAF: vanhentunut (24279 tuntia)

Aika: 22:26 (19:26 UTC)

Tämänhetkinen sää

Tämä raportti tehtiin 36 minuuttia sitten, kello 18:50 UTC  
Tuuli 03 kt alkaen koillinen
Lämpötila 6°C
Kosteus 81%
Ilmanpaine 1026 hPa
Näkyvyys 10 km tai enemmän
ei ollut pilviä alle 1500m eikä cumulonimbus pilviä

Mittayksikkö

Sääennuste

Tämä raportti tehtiin 4 tuntia ja 44 minuuttia sitten, kello 14:42 UTC  
Ennuste voimassa 16 klo 15 UTC - 16 klo 18 UTC
Tuuli 06 kt alkaen etelä
Näkyvyys 10 km tai enemmän
ei ollut pilviä alle 1500m eikä cumulonimbus pilviä
Tällä sivustolla oleviin tietoihin liittyy vastuuvapauslauseke
Sää : Eurooppa Afrikka Pohjois-Amerikka Etelä-Amerikka Aasia Australia-Oseania Muut
Sääsatelliitin kuvat 15 päivän ennusteIlmastoMerisää Sykloni Salama LentoasemaUKK Kielillä Yhteystiedot Newsletter Tietoja